Time;durP1;ratioP1;P1;durP2;ratioP2;P2;SDS_P1;SDS_P2;PMS_P1;PMS_P2;Temp;Humidity;BMP_temperature;BMP_pressure;BME280_temperature;BME280_humidity;BME280_pressure;Samples;Min_cycle;Max_cycle;Signal;HPM_P1;HPM_P2
2022/11/02 06:33:15;;;;;;;56.80;30.80;;;;;;;;;;10419010;23;20574;-90
2022/11/02 06:38:18;;;;;;;62.45;31.38;;;;;;;;;;10365941;28;20411;-90
2022/11/02 06:43:20;;;;;;;65.33;32.93;;;;;;;;;;10357244;28;20419;-89
2022/11/02 06:48:24;;;;;;;65.95;32.30;;;;;;;;;;10352835;28;20449;-90
2022/11/02 06:53:26;;;;;;;67.30;32.77;;;;;;;;;;10353936;28;20822;-90
2022/11/02 06:58:29;;;;;;;64.20;32.70;;;;;;;;;;10362189;28;20420;-89
2022/11/02 07:03:33;;;;;;;63.85;32.25;;;;;;;;;;10347857;28;20417;-90
2022/11/02 07:08:35;;;;;;;50.83;29.17;;;;;;;;;;10350229;28;20484;-89
2022/11/02 07:13:37;;;;;;;47.75;26.80;;;;;;;;;;10366759;28;20410;-90
2022/11/02 07:18:44;;;;;;;49.17;26.88;;;;;;;;;;10359752;28;20413;-89
2022/11/02 07:23:46;;;;;;;49.38;26.85;;;;;;;;;;10360533;28;20422;-90
2022/11/02 07:28:48;;;;;;;44.27;25.47;;;;;;;;;;10362396;28;20430;-90
2022/11/02 07:33:51;;;;;;;42.55;25.40;;;;;;;;;;10349757;28;20414;-90
2022/11/02 07:38:53;;;;;;;43.38;25.80;;;;;;;;;;10378018;28;20442;-90
2022/11/02 07:43:55;;;;;;;41.63;24.75;;;;;;;;;;10366157;28;20427;-90
2022/11/02 07:48:59;;;;;;;40.53;24.17;;;;;;;;;;10353698;28;20423;-90
2022/11/02 07:54:01;;;;;;;40.80;24.77;;;;;;;;;;10356254;28;20418;-89
2022/11/02 07:59:03;;;;;;;38.60;23.52;;;;;;;;;;10362989;28;20414;-90
2022/11/02 08:04:07;;;;;;;39.03;23.95;;;;;;;;;;10363059;28;20450;-89
2022/11/02 08:09:09;;;;;;;37.17;22.77;;;;;;;;;;10360170;28;20446;-90
2022/11/02 08:14:11;;;;;;;38.97;23.52;;;;;;;;;;10364701;28;20415;-88
2022/11/02 08:19:15;;;;;;;34.38;22.75;;;;;;;;;;10357073;28;20411;-90
2022/11/02 08:24:17;;;;;;;34.20;22.50;;;;;;;;;;10364194;28;20442;-89
2022/11/02 08:29:19;;;;;;;34.80;21.33;;;;;;;;;;10364333;28;20420;-89
2022/11/02 08:34:22;;;;;;;34.92;22.27;;;;;;;;;;10364615;28;20418;-88
2022/11/02 08:39:25;;;;;;;35.67;21.20;;;;;;;;;;10366998;28;20763;-89
2022/11/02 08:44:27;;;;;;;36.97;20.97;;;;;;;;;;10362156;28;20411;-89
2022/11/02 08:49:30;;;;;;;39.25;21.17;;;;;;;;;;10364576;28;20416;-89
2022/11/02 08:54:32;;;;;;;36.63;21.83;;;;;;;;;;10365210;28;20425;-89
2022/11/02 08:59:34;;;;;;;39.58;22.48;;;;;;;;;;10366464;28;20813;-89
2022/11/02 09:04:38;;;;;;;41.72;22.65;;;;;;;;;;10366686;28;20768;-89
2022/11/02 09:09:40;;;;;;;36.63;22.50;;;;;;;;;;10354729;28;20423;-83
2022/11/02 09:14:52;;;;;;;40.43;22.80;;;;;;;;;;10353324;28;20414;-90
2022/11/02 09:25:12;;;;;;;39.87;23.47;;;;;;;;;;10365197;28;20791;-90
2022/11/02 09:30:14;;;;;;;45.38;25.20;;;;;;;;;;10349447;28;20419;-90
2022/11/02 09:35:18;;;;;;;43.33;24.38;;;;;;;;;;10363980;28;20497;-90
2022/11/02 09:40:25;;;;;;;51.07;26.03;;;;;;;;;;10366517;28;20495;-89
2022/11/02 09:45:28;;;;;;;45.93;25.13;;;;;;;;;;10359036;28;20431;-89
2022/11/02 09:50:41;;;;;;;50.00;25.20;;;;;;;;;;10363898;28;20622;-89
2022/11/02 09:55:49;;;;;;;53.10;27.70;;;;;;;;;;10354764;28;20415;-90
2022/11/02 10:00:54;;;;;;;47.65;27.05;;;;;;;;;;10372153;28;20907;-90
2022/11/02 10:06:03;;;;;;;60.10;30.33;;;;;;;;;;10406979;28;20497;-89
2022/11/02 10:11:22;;;;;;;59.55;30.08;;;;;;;;;;10375152;28;20508;-90
2022/11/02 10:16:33;;;;;;;54.57;28.27;;;;;;;;;;10362452;28;20411;-90
2022/11/02 10:21:42;;;;;;;55.93;28.90;;;;;;;;;;10359609;28;20468;-90
2022/11/02 10:26:45;;;;;;;58.57;29.07;;;;;;;;;;10365880;28;20961;-90
2022/11/02 10:31:47;;;;;;;58.30;29.60;;;;;;;;;;10360639;28;20423;-90
2022/11/02 10:37:06;;;;;;;55.13;28.63;;;;;;;;;;10360350;28;20479;-89
2022/11/02 10:42:26;;;;;;;56.50;29.27;;;;;;;;;;10362818;28;20407;-89
2022/11/02 10:47:34;;;;;;;56.60;29.70;;;;;;;;;;10363041;28;20448;-89
2022/11/02 10:52:39;;;;;;;57.57;30.17;;;;;;;;;;10360841;28;20427;-88
2022/11/02 10:57:41;;;;;;;64.03;31.43;;;;;;;;;;10357226;28;20438;-89
2022/11/02 11:02:43;;;;;;;59.55;30.55;;;;;;;;;;10363253;28;20403;-88
2022/11/02 11:07:47;;;;;;;67.25;31.95;;;;;;;;;;10361855;28;20415;-88
2022/11/02 11:12:49;;;;;;;65.13;32.33;;;;;;;;;;10363912;28;20430;-90
2022/11/02 11:17:51;;;;;;;69.83;33.17;;;;;;;;;;10363327;28;21264;-90
2022/11/02 11:23:21;;;;;;;59.50;31.35;;;;;;;;;;10352252;28;20452;-89
2022/11/02 11:28:25;;;;;;;61.60;32.70;;;;;;;;;;10359918;28;20552;-89
2022/11/02 11:33:27;;;;;;;62.73;31.90;;;;;;;;;;10357896;28;20417;-89
2022/11/02 11:38:30;;;;;;;65.97;31.52;;;;;;;;;;10347302;28;20902;-89
2022/11/02 11:43:38;;;;;;;63.38;31.30;;;;;;;;;;10352605;28;20428;-89
2022/11/02 11:48:43;;;;;;;62.93;32.10;;;;;;;;;;10355216;28;20468;-89
2022/11/02 11:54:05;;;;;;;61.55;31.80;;;;;;;;;;10351717;28;20495;-89
2022/11/02 11:59:19;;;;;;;61.15;32.03;;;;;;;;;;10360351;28;20926;-88
2022/11/02 12:04:32;;;;;;;59.80;30.55;;;;;;;;;;10353203;28;20508;-89
2022/11/02 12:09:47;;;;;;;63.33;32.10;;;;;;;;;;10357771;28;20427;-89
2022/11/02 12:15:03;;;;;;;61.90;31.73;;;;;;;;;;10346049;28;20420;-90
2022/11/02 12:20:20;;;;;;;64.43;31.80;;;;;;;;;;10344633;28;20428;-89
2022/11/02 12:25:36;;;;;;;62.70;31.37;;;;;;;;;;10342790;28;20413;-89
2022/11/02 12:30:53;;;;;;;64.20;31.27;;;;;;;;;;10347009;28;20421;-90
2022/11/02 12:36:12;;;;;;;66.23;32.53;;;;;;;;;;10343754;28;20417;-88
2022/11/02 12:41:23;;;;;;;63.57;31.50;;;;;;;;;;10354632;28;20418;-87
2022/11/02 12:46:36;;;;;;;59.58;31.45;;;;;;;;;;10351896;28;20463;-88
2022/11/02 12:51:45;;;;;;;61.97;33.13;;;;;;;;;;10357399;28;20422;-87
2022/11/02 12:56:50;;;;;;;61.67;30.98;;;;;;;;;;10386473;28;20438;-88
2022/11/02 13:02:10;;;;;;;59.55;30.83;;;;;;;;;;10372909;28;20414;-89
2022/11/02 13:07:15;;;;;;;63.33;32.90;;;;;;;;;;10349637;28;20411;-87
2022/11/02 13:12:21;;;;;;;58.42;32.15;;;;;;;;;;10359611;28;20434;-88
2022/11/02 13:17:27;;;;;;;64.00;33.47;;;;;;;;;;10362686;28;20742;-88
2022/11/02 13:22:35;;;;;;;64.65;32.60;;;;;;;;;;10356676;28;20422;-87
2022/11/02 13:27:49;;;;;;;62.87;32.00;;;;;;;;;;10348963;28;20418;-87
2022/11/02 13:32:58;;;;;;;65.75;31.75;;;;;;;;;;10347979;28;20482;-87
2022/11/02 13:38:05;;;;;;;67.70;31.73;;;;;;;;;;10341507;28;20934;-85
2022/11/02 13:43:47;;;;;;;62.35;32.67;;;;;;;;;;10353369;28;20445;-88
2022/11/02 13:48:59;;;;;;;63.00;31.63;;;;;;;;;;10306814;28;20919;-87
2022/11/02 13:54:04;;;;;;;62.93;32.60;;;;;;;;;;10349768;28;20422;-88
2022/11/02 13:59:10;;;;;;;61.27;31.97;;;;;;;;;;10350084;28;20415;-86
2022/11/02 14:04:14;;;;;;;65.95;33.00;;;;;;;;;;10344585;28;20958;-88
2022/11/02 14:09:33;;;;;;;65.30;33.00;;;;;;;;;;10349164;28;20434;-88
2022/11/02 14:14:42;;;;;;;67.70;31.88;;;;;;;;;;10350251;28;20411;-86
2022/11/02 14:20:03;;;;;;;66.85;33.72;;;;;;;;;;10355207;28;20426;-87
2022/11/02 14:25:16;;;;;;;65.35;33.22;;;;;;;;;;10350085;28;20465;-87
2022/11/02 14:30:48;;;;;;;66.45;33.90;;;;;;;;;;10348736;28;20487;-89
2022/11/02 14:36:00;;;;;;;68.70;33.40;;;;;;;;;;10349762;28;20776;-88
2022/11/02 14:41:19;;;;;;;74.03;34.80;;;;;;;;;;10348372;28;20765;-87
2022/11/02 14:46:39;;;;;;;70.03;35.88;;;;;;;;;;10353976;28;20415;-86
2022/11/02 14:51:46;;;;;;;70.03;35.42;;;;;;;;;;10351912;28;20430;-88
2022/11/02 14:56:59;;;;;;;70.30;35.45;;;;;;;;;;10350042;28;20986;-88
2022/11/02 15:02:09;;;;;;;68.78;36.03;;;;;;;;;;10351539;28;20410;-88
2022/11/02 15:07:22;;;;;;;74.73;35.10;;;;;;;;;;10344927;28;20447;-87
2022/11/02 15:12:37;;;;;;;74.40;36.88;;;;;;;;;;10359579;28;21078;-89
2022/11/02 15:18:01;;;;;;;72.82;36.92;;;;;;;;;;10352570;28;20982;-88
2022/11/02 15:23:15;;;;;;;75.88;37.00;;;;;;;;;;10350969;28;20427;-85
2022/11/02 15:28:23;;;;;;;75.07;36.70;;;;;;;;;;10348406;28;20597;-87
2022/11/02 15:33:38;;;;;;;73.00;37.23;;;;;;;;;;10344940;28;20983;-87
2022/11/02 15:38:48;;;;;;;76.85;38.45;;;;;;;;;;10342931;28;20429;-87
2022/11/02 15:44:22;;;;;;;80.10;38.20;;;;;;;;;;10347305;28;20418;-87
2022/11/02 15:49:51;;;;;;;76.72;37.80;;;;;;;;;;10344714;28;20434;-87
2022/11/02 15:55:05;;;;;;;80.55;39.25;;;;;;;;;;10339659;28;20465;-89
2022/11/02 16:00:22;;;;;;;79.43;38.65;;;;;;;;;;10343549;28;20427;-87
2022/11/02 16:05:31;;;;;;;81.68;39.35;;;;;;;;;;10348976;28;20458;-88
2022/11/02 16:10:36;;;;;;;80.13;40.38;;;;;;;;;;10344873;28;20433;-89
2022/11/02 16:15:55;;;;;;;;;;;;;;;;;;;;;
2022/11/02 16:21:20;;;;;;;85.32;41.45;;;;;;;;;;10349871;28;20430;-89
2022/11/02 16:26:36;;;;;;;91.18;43.10;;;;;;;;;;10352215;28;20427;-92
2022/11/02 16:31:55;;;;;;;94.00;42.57;;;;;;;;;;10351781;28;20488;-90
2022/11/02 16:37:18;;;;;;;84.27;41.97;;;;;;;;;;10359331;28;20416;-90
2022/11/02 16:42:26;;;;;;;83.53;40.90;;;;;;;;;;10355808;28;20426;-89
2022/11/02 16:47:45;;;;;;;83.63;41.50;;;;;;;;;;10362904;28;20545;-91
2022/11/02 16:53:18;;;;;;;85.82;41.53;;;;;;;;;;10365865;28;20518;-92
2022/11/02 16:58:34;;;;;;;87.60;41.72;;;;;;;;;;10359570;28;20619;-92
2022/11/02 17:03:39;;;;;;;82.33;42.00;;;;;;;;;;10356267;28;20419;-91
2022/11/02 17:09:01;;;;;;;80.32;39.85;;;;;;;;;;10331665;28;20429;-90
2022/11/02 17:14:04;;;;;;;69.57;35.25;;;;;;;;;;10346719;28;20559;-91
2022/11/02 17:19:50;;;;;;;60.53;33.03;;;;;;;;;;10347574;28;20498;-91
2022/11/02 17:25:18;;;;;;;57.95;30.40;;;;;;;;;;10349502;28;20415;-89
2022/11/02 17:30:43;;;;;;;56.97;31.48;;;;;;;;;;10345558;28;20498;-90
2022/11/02 17:52:20;;;;;;;58.47;31.00;;;;;;;;;;10344756;28;20419;-90
2022/11/02 17:57:29;;;;;;;59.92;31.83;;;;;;;;;;10342973;28;21461;-91
2022/11/02 18:02:31;;;;;;;58.72;32.35;;;;;;;;;;10337721;28;20429;-90
2022/11/02 18:07:43;;;;;;;61.13;31.80;;;;;;;;;;10342348;28;20485;-91
2022/11/02 18:12:50;;;;;;;59.00;32.83;;;;;;;;;;10338500;28;20448;-91
2022/11/02 18:17:53;;;;;;;61.75;32.67;;;;;;;;;;10361153;28;20869;-90
2022/11/02 18:23:15;;;;;;;53.43;30.00;;;;;;;;;;10361771;28;20454;-90
2022/11/02 18:33:39;;;;;;;47.88;26.98;;;;;;;;;;10363933;28;20435;-91
2022/11/02 18:38:42;;;;;;;45.90;26.65;;;;;;;;;;10358936;28;20433;-88
2022/11/02 18:43:45;;;;;;;48.17;26.70;;;;;;;;;;10352185;28;20530;-88
2022/11/02 18:48:47;;;;;;;40.25;25.15;;;;;;;;;;10358725;28;20435;-87
2022/11/02 18:53:56;;;;;;;42.13;26.13;;;;;;;;;;10354926;28;20419;-88
2022/11/02 18:59:00;;;;;;;51.13;28.05;;;;;;;;;;10354217;28;20438;-88
2022/11/02 19:04:02;;;;;;;45.20;27.02;;;;;;;;;;10350769;28;20464;-87
2022/11/02 19:09:20;;;;;;;46.20;26.77;;;;;;;;;;10349295;28;20894;-89
2022/11/02 19:14:28;;;;;;;43.15;25.48;;;;;;;;;;10348435;28;20407;-89
2022/11/02 19:19:30;;;;;;;41.97;24.23;;;;;;;;;;10358799;28;20925;-88
2022/11/02 19:24:32;;;;;;;41.58;24.52;;;;;;;;;;10352071;28;20830;-88
2022/11/02 19:29:35;;;;;;;43.40;25.67;;;;;;;;;;10345496;28;20419;-88
2022/11/02 19:34:38;;;;;;;44.10;27.10;;;;;;;;;;10353782;28;20433;-87
2022/11/02 19:39:40;;;;;;;44.38;25.67;;;;;;;;;;10352143;28;20445;-87
2022/11/02 19:44:43;;;;;;;41.78;25.60;;;;;;;;;;10357433;28;20430;-88
2022/11/02 19:49:45;;;;;;;45.72;28.48;;;;;;;;;;10355689;28;20455;-88
2022/11/02 19:54:47;;;;;;;43.40;26.30;;;;;;;;;;10352615;28;20446;-89
2022/11/02 19:59:50;;;;;;;44.20;26.57;;;;;;;;;;10353315;28;20453;-89
2022/11/02 20:04:52;;;;;;;40.33;26.17;;;;;;;;;;10336912;28;20421;-88
2022/11/02 20:09:54;;;;;;;46.30;27.63;;;;;;;;;;10346738;28;20466;-88
2022/11/02 20:14:57;;;;;;;44.97;29.42;;;;;;;;;;10352204;28;20473;-89
2022/11/02 20:19:59;;;;;;;41.78;26.95;;;;;;;;;;10361878;28;20459;-88
2022/11/02 20:25:01;;;;;;;41.40;25.55;;;;;;;;;;10357686;28;20476;-90
2022/11/02 20:30:06;;;;;;;42.28;25.80;;;;;;;;;;10370825;28;20950;-90
2022/11/02 20:35:10;;;;;;;44.28;26.23;;;;;;;;;;10399874;28;20422;-89
2022/11/02 20:40:12;;;;;;;45.55;26.52;;;;;;;;;;10360130;28;20426;-89
2022/11/02 20:45:16;;;;;;;43.47;25.55;;;;;;;;;;10360807;28;20465;-88
2022/11/02 20:50:18;;;;;;;44.30;26.80;;;;;;;;;;10356907;28;20864;-88
2022/11/02 20:55:21;;;;;;;40.40;25.95;;;;;;;;;;10356213;28;20919;-88
2022/11/02 21:00:25;;;;;;;48.43;25.90;;;;;;;;;;10353271;28;20419;-88
2022/11/02 21:05:27;;;;;;;46.37;25.93;;;;;;;;;;10355261;28;20430;-88
2022/11/02 21:10:29;;;;;;;43.42;26.30;;;;;;;;;;10352202;28;20879;-88
2022/11/02 21:15:35;;;;;;;51.97;28.23;;;;;;;;;;10356429;28;20455;-89
2022/11/02 21:20:39;;;;;;;46.40;28.10;;;;;;;;;;10359819;28;20447;-89
2022/11/02 21:25:41;;;;;;;47.10;28.02;;;;;;;;;;10351414;28;20473;-88
2022/11/02 21:30:44;;;;;;;42.63;26.60;;;;;;;;;;10361284;28;20489;-89
2022/11/02 21:35:47;;;;;;;41.67;25.95;;;;;;;;;;10356319;28;21038;-87
2022/11/02 21:40:49;;;;;;;45.53;25.95;;;;;;;;;;10356994;28;20473;-89
2022/11/02 21:45:56;;;;;;;40.47;26.10;;;;;;;;;;10356151;28;20462;-87
2022/11/02 21:51:03;;;;;;;40.10;25.93;;;;;;;;;;10359250;28;20848;-88
2022/11/02 21:56:07;;;;;;;41.03;24.98;;;;;;;;;;10355531;28;20451;-88
2022/11/02 22:06:43;;;;;;;43.50;25.08;;;;;;;;;;10319363;28;20395;-87
2022/11/02 22:11:45;;;;;;;43.87;25.30;;;;;;;;;;10351353;28;20464;-89
2022/11/02 22:16:49;;;;;;;39.33;24.50;;;;;;;;;;10349178;28;20411;-89
2022/11/02 22:21:51;;;;;;;41.60;25.43;;;;;;;;;;10348765;28;20511;-89
2022/11/02 22:26:53;;;;;;;39.90;25.92;;;;;;;;;;10348648;28;20492;-90
2022/11/02 22:31:57;;;;;;;40.05;24.38;;;;;;;;;;10346053;28;20443;-90
2022/11/02 22:38:47;;;;;;;44.23;26.50;;;;;;;;;;10348523;28;20427;-89
2022/11/02 22:42:21;;;;;;;41.67;25.38;;;;;;;;;;10358723;28;20485;-90
2022/11/02 22:47:25;;;;;;;40.25;25.55;;;;;;;;;;10361794;28;20415;-89
2022/11/02 22:52:27;;;;;;;41.90;24.60;;;;;;;;;;10358005;28;20446;-89
2022/11/02 22:57:28;;;;;;;41.92;25.23;;;;;;;;;;10364162;28;20442;-89
2022/11/02 23:02:32;;;;;;;36.60;25.07;;;;;;;;;;10359655;28;21094;-88
2022/11/02 23:07:34;;;;;;;40.00;25.17;;;;;;;;;;10331947;28;20492;-90
2022/11/02 23:17:53;;;;;;;40.90;24.58;;;;;;;;;;10348797;28;20399;-89
2022/11/02 23:33:39;;;;;;;38.50;23.80;;;;;;;;;;10337033;28;20514;-88
2022/11/02 23:44:12;;;;;;;41.08;24.77;;;;;;;;;;10353110;28;20395;-89
2022/11/02 23:49:17;;;;;;;38.13;24.02;;;;;;;;;;10353304;28;20419;-87
2022/11/02 23:59:46;;;;;;;38.30;23.88;;;;;;;;;;10376502;28;20391;-87
